Machynlleth, United Kingdom
Current Conditions -  °F | °C
As of 4:50 AM on Saturday 22 Nov 2014 (Local Time) from EGOS Reporting Station
Haze Haze  
Wind Chill: 10°   Ceiling: 400
Heat Index: 10°   Visibility: 2.3mi
Dew Point: 10°   Wind: 13mph
Humidity: 100%   Direction: 150°SSE
Pressure: 29.74"   Gusts: NA
Location:  52.59°N, 3.85°W
Report Text: EGOS 220450Z AUTO 15011KT 3800 BR OVC004/// 10/10 Q1007
Loading
Personal Weather Stations






























Interactive Weather Map New forecast layout! Learn more

10-Day Weather Forecast

Advertisements
Track Severe Weather on mobile